Aviation Digital Data Service (ADDS)

Output produced by METARs form (1941 UTC 25 March 2017)
found at http://www.aviationweather.gov/adds/metars/
 
MSLP 251950Z 22008G18KT 9999 FEW078 33/19 Q1011 A2986 HZ NOSIG
TAF MSLP 251525Z 2518/2618 22012KT 9999 FEW060 TX35/18Z TN20/11Z 
     TEMPO 2600/2604 26007KT 
     FM260400 04007KT CAVOK
       
MSSS 251850Z 24008KT CAVOK 30/19 Q1017 A3005 HZ
TAF MSSS 251525Z 2518/2618 17010KT 9999 FEW047 TX32/19Z TN18/11Z 
     FM260400 35008KT CAVOK